Terminal Aerodrome Forecast
Issued by NWS Blacksburg, VA

Home | Current Version | Previous Version | Text Only | Print | Product List | Glossary On
Versions: 1 2 3 4 5 6 7 8 9 10 11 12 13 14 15 16 17 18 19 20 21 22 23 24 25 26 27 28 29 30 31 32 33 34 35 36 37 38 39 40 41 42 43 44 45 46 47 48 49 50
000
FTUS41 KRNK 041723
TAFROA
TAF
KROA 041723Z 0418/0518 21006KT P6SM -RA SCT015 OVC035
     FM050000 32006KT 2SM -RA BR OVC015
     FM050600 33005KT 4SM -RA BR SCT008 OVC012
     FM051100 33004KT 4SM -RAPL BR OVC007
     FM051400 02006KT 1 1/2SM -SNPL BR OVC004=

USA.gov is the U.S. government's official web portal to all federal, state and local government web resources and services.